createdAt,value
2022-09-28T00:00:06.941Z,17.30
2022-09-28T00:01:06.897Z,16.30
2022-09-28T00:02:06.969Z,13.20
2022-09-28T00:03:06.862Z,13.30
2022-09-28T00:04:06.749Z,13.90
2022-09-28T00:05:06.696Z,14.80
2022-09-28T00:06:06.654Z,13.70
2022-09-28T00:07:06.602Z,12.40
2022-09-28T00:08:06.575Z,14.80
2022-09-28T00:09:06.504Z,13.20
2022-09-28T00:10:06.458Z,16.30
2022-09-28T00:11:06.409Z,13.60
2022-09-28T00:12:06.361Z,13.50
2022-09-28T00:13:06.311Z,12.70
2022-09-28T00:14:06.268Z,11.60
2022-09-28T00:15:06.219Z,16.30
2022-09-28T00:16:06.283Z,13.50
2022-09-28T00:17:06.118Z,13.30
2022-09-28T00:18:06.071Z,12.60
2022-09-28T00:19:06.024Z,14.20
2022-09-28T00:20:05.975Z,12.90
2022-09-28T00:21:05.926Z,12.40
2022-09-28T00:22:05.880Z,12.00
2022-09-28T00:23:05.830Z,9.90
2022-09-28T00:24:05.800Z,11.10
2022-09-28T00:25:05.734Z,10.20
2022-09-28T00:26:05.692Z,12.90
2022-09-28T00:27:05.637Z,13.60
2022-09-28T00:28:05.588Z,12.90
2022-09-28T00:29:05.539Z,10.50
2022-09-28T00:30:05.493Z,11.80
2022-09-28T00:31:05.543Z,12.10
2022-09-28T00:32:05.397Z,11.10
2022-09-28T00:33:05.347Z,9.30
2022-09-28T00:34:05.308Z,11.70
2022-09-28T00:35:05.254Z,11.90
2022-09-28T00:36:05.204Z,10.80
2022-09-28T00:37:05.153Z,10.60
2022-09-28T00:38:05.106Z,11.00
2022-09-28T00:39:05.061Z,9.90
2022-09-28T00:40:05.030Z,10.00
2022-09-28T00:41:04.960Z,10.30
2022-09-28T00:42:04.915Z,8.60
2022-09-28T00:43:04.868Z,11.00
2022-09-28T00:44:04.825Z,10.90
2022-09-28T00:45:04.768Z,10.90
2022-09-28T00:46:04.814Z,9.80
2022-09-28T00:47:04.671Z,10.40
2022-09-28T00:48:04.625Z,9.60
2022-09-28T00:49:04.576Z,9.50
2022-09-28T00:50:04.529Z,10.90
2022-09-28T00:51:04.480Z,13.50
2022-09-28T00:52:04.435Z,9.80
2022-09-28T00:53:04.381Z,11.40
2022-09-28T00:54:04.335Z,9.10
2022-09-28T00:55:04.285Z,8.20
2022-09-28T00:56:04.256Z,8.90
2022-09-28T00:57:04.192Z,9.10
2022-09-28T00:58:04.146Z,10.10
2022-09-28T00:59:04.095Z,10.50
2022-09-28T01:00:04.057Z,9.70
2022-09-28T01:01:04.069Z,9.60
2022-09-28T01:02:04.069Z,9.90
2022-09-28T01:03:03.912Z,10.40
2022-09-28T01:04:03.856Z,9.70
2022-09-28T01:05:03.803Z,9.50
2022-09-28T01:06:03.757Z,8.80
2022-09-28T01:07:03.706Z,11.90
2022-09-28T01:08:03.662Z,11.80
2022-09-28T01:09:03.610Z,9.80
2022-09-28T01:10:03.562Z,9.10
2022-09-28T01:11:03.516Z,11.20
2022-09-28T01:12:03.491Z,12.80
2022-09-28T01:13:03.421Z,10.90
2022-09-28T01:14:03.377Z,15.00
2022-09-28T01:15:03.323Z,15.20
2022-09-28T01:16:03.338Z,12.30
2022-09-28T01:17:03.224Z,12.10
2022-09-28T01:18:03.176Z,12.80
2022-09-28T01:19:03.127Z,13.10
2022-09-28T01:20:03.080Z,11.50
2022-09-28T01:21:03.035Z,11.10
2022-09-28T01:23:02.934Z,11.70
2022-09-28T01:24:02.885Z,13.20
2022-09-28T01:25:02.836Z,12.90
2022-09-28T01:26:02.785Z,13.60
2022-09-28T01:27:02.741Z,10.00
2022-09-28T01:28:02.709Z,13.60
2022-09-28T01:29:02.644Z,11.70
2022-09-28T01:30:02.596Z,12.90
2022-09-28T01:31:02.549Z,13.20
2022-09-28T01:32:02.579Z,14.30
2022-09-28T01:33:02.450Z,15.30
2022-09-28T01:34:02.401Z,14.10
2022-09-28T01:35:02.354Z,12.00
2022-09-28T01:36:02.306Z,13.50
2022-09-28T01:37:02.274Z,13.90
2022-09-28T01:38:02.208Z,11.50
2022-09-28T01:39:02.172Z,13.30
2022-09-28T01:40:02.112Z,12.50
2022-09-28T01:41:02.068Z,13.90
2022-09-28T01:42:02.015Z,15.60
2022-09-28T01:43:01.968Z,12.70
2022-09-28T01:44:01.941Z,12.70
2022-09-28T01:45:01.871Z,12.10
2022-09-28T01:46:01.914Z,12.80
2022-09-28T01:47:01.772Z,13.30
2022-09-28T01:48:01.724Z,13.30
2022-09-28T01:49:01.680Z,14.50
2022-09-28T01:50:01.625Z,12.00
2022-09-28T01:51:01.580Z,13.40
2022-09-28T01:52:01.530Z,12.50
2022-09-28T01:53:01.486Z,15.00
2022-09-28T01:54:01.434Z,12.10
2022-09-28T01:55:01.386Z,13.20
2022-09-28T01:56:01.336Z,12.10
2022-09-28T01:57:01.291Z,13.10
2022-09-28T01:58:01.304Z,14.00
2022-09-28T01:59:01.194Z,14.80
2022-09-28T02:00:01.162Z,13.10
2022-09-28T02:01:01.160Z,12.40
2022-09-28T02:02:01.095Z,13.70
2022-09-28T02:03:00.999Z,11.60
2022-09-28T02:04:00.956Z,15.20
2022-09-28T02:05:00.908Z,17.00
2022-09-28T02:06:00.852Z,15.70
2022-09-28T02:07:00.810Z,14.80
2022-09-28T02:08:00.757Z,16.60
2022-09-28T02:09:00.714Z,14.70
2022-09-28T02:10:00.660Z,16.10
2022-09-28T02:11:00.613Z,15.80
2022-09-28T02:12:00.567Z,14.40
2022-09-28T02:13:00.516Z,14.80
2022-09-28T02:14:00.466Z,14.30
2022-09-28T02:15:00.441Z,15.20
2022-09-28T02:16:00.456Z,18.90
2022-09-28T02:17:00.342Z,17.90
2022-09-28T02:18:00.275Z,16.60
2022-09-28T02:19:00.227Z,17.80
2022-09-28T02:20:00.181Z,16.30
2022-09-28T02:21:00.127Z,19.30
2022-09-28T02:22:00.092Z,18.80
2022-09-28T02:23:00.034Z,17.70
2022-09-28T02:23:59.986Z,19.90
2022-09-28T02:24:59.936Z,20.90
2022-09-28T02:25:59.888Z,20.90
2022-09-28T02:26:59.840Z,24.20
2022-09-28T02:27:59.789Z,23.50
2022-09-28T02:28:59.742Z,24.40
2022-09-28T02:29:59.690Z,24.30
2022-09-28T02:30:59.644Z,24.70
2022-09-28T02:31:59.707Z,25.70
2022-09-28T02:32:59.550Z,24.40
2022-09-28T02:33:59.504Z,25.40
2022-09-28T02:34:59.461Z,22.60
2022-09-28T02:35:59.435Z,27.10
2022-09-28T02:36:59.357Z,28.40
2022-09-28T02:37:59.306Z,28.10
2022-09-28T02:38:59.257Z,26.90
2022-09-28T02:39:59.211Z,28.60
2022-09-28T02:40:59.189Z,29.10
2022-09-28T02:41:59.112Z,30.40
2022-09-28T02:42:59.065Z,34.20
2022-09-28T02:44:58.965Z,30.40
2022-09-28T02:45:59.023Z,33.20
2022-09-28T02:46:58.871Z,32.20
2022-09-28T02:47:58.840Z,32.00
2022-09-28T02:49:19.910Z,34.80
2022-09-28T02:49:58.727Z,34.30
2022-09-28T02:50:58.676Z,34.00
2022-09-28T02:51:58.632Z,33.40
2022-09-28T02:52:58.579Z,34.30
2022-09-28T02:53:58.536Z,35.40
2022-09-28T02:54:58.483Z,32.20
2022-09-28T02:55:58.435Z,37.40
2022-09-28T02:56:58.388Z,37.20
2022-09-28T02:57:58.338Z,36.00
2022-09-28T02:58:58.290Z,35.90
2022-09-28T02:59:58.241Z,37.90
2022-09-28T03:00:58.261Z,33.90
2022-09-28T03:01:58.211Z,35.50
2022-09-28T03:02:58.119Z,34.00
2022-09-28T03:03:58.069Z,34.50
2022-09-28T03:04:58.004Z,32.10
2022-09-28T03:05:57.951Z,33.50
2022-09-28T03:06:57.906Z,31.80
2022-09-28T03:07:57.857Z,35.30
2022-09-28T03:08:57.807Z,36.10
2022-09-28T03:09:57.758Z,32.10
2022-09-28T03:10:57.711Z,35.40
2022-09-28T03:11:57.660Z,32.20
2022-09-28T03:12:57.614Z,31.30
2022-09-28T03:13:57.563Z,31.50
2022-09-28T03:14:57.518Z,32.60
2022-09-28T03:15:57.506Z,34.40
2022-09-28T03:16:57.419Z,34.30
2022-09-28T03:17:57.372Z,32.10
2022-09-28T03:18:57.323Z,31.10
2022-09-28T03:19:57.292Z,35.10
2022-09-28T03:20:57.226Z,33.30
2022-09-28T03:21:57.176Z,32.00
2022-09-28T03:23:20.147Z,35.10
2022-09-28T03:23:57.080Z,34.30
2022-09-28T03:24:57.032Z,32.10
2022-09-28T03:25:56.981Z,31.60
2022-09-28T03:26:56.936Z,33.20
2022-09-28T03:27:56.887Z,32.40
2022-09-28T03:28:56.842Z,33.40
2022-09-28T03:29:56.789Z,32.60
2022-09-28T03:30:56.744Z,31.80
2022-09-28T03:31:56.753Z,32.80
2022-09-28T03:32:56.663Z,34.90
2022-09-28T03:33:56.607Z,36.30
2022-09-28T03:34:56.551Z,34.30
2022-09-28T03:35:56.523Z,34.70
2022-09-28T03:36:56.455Z,33.30
2022-09-28T03:37:56.402Z,31.90
2022-09-28T03:38:56.356Z,31.90
2022-09-28T03:39:56.306Z,35.90
2022-09-28T03:40:56.354Z,33.10
2022-09-28T03:41:56.208Z,35.00
2022-09-28T03:42:56.164Z,35.50
2022-09-28T03:43:56.112Z,33.40
2022-09-28T03:44:56.067Z,31.80
2022-09-28T03:45:56.107Z,33.40
2022-09-28T03:46:55.972Z,33.20
2022-09-28T03:47:55.920Z,33.60
2022-09-28T03:48:55.873Z,34.70
2022-09-28T03:49:55.823Z,35.80
2022-09-28T03:50:55.778Z,33.50
2022-09-28T03:51:55.747Z,36.80
2022-09-28T03:52:55.679Z,32.90
2022-09-28T03:53:55.632Z,33.70
2022-09-28T03:54:55.588Z,31.10
2022-09-28T03:55:55.534Z,33.50
2022-09-28T03:56:55.486Z,31.40
2022-09-28T03:57:55.436Z,34.70
2022-09-28T03:58:55.389Z,33.90
2022-09-28T03:59:55.344Z,31.10
2022-09-28T04:00:55.356Z,30.80
2022-09-28T04:01:55.449Z,32.10
2022-09-28T04:02:55.197Z,32.40
2022-09-28T04:03:55.151Z,32.00
2022-09-28T04:04:55.099Z,33.10
2022-09-28T04:05:55.052Z,33.50
2022-09-28T04:06:55.004Z,33.10
2022-09-28T04:07:54.970Z,31.70
2022-09-28T04:08:54.907Z,32.30
2022-09-28T04:09:54.856Z,36.40
2022-09-28T04:10:54.809Z,30.40
2022-09-28T04:12:03.916Z,34.20
2022-09-28T04:12:54.714Z,32.60
2022-09-28T04:13:54.661Z,31.60
2022-09-28T04:14:54.618Z,34.80
2022-09-28T04:15:54.574Z,32.10
2022-09-28T04:16:54.519Z,31.00
2022-09-28T04:17:54.470Z,32.40
2022-09-28T04:18:54.423Z,34.50
2022-09-28T04:19:54.371Z,32.50
2022-09-28T04:20:54.324Z,32.00
2022-09-28T04:21:54.275Z,34.90
2022-09-28T04:22:54.228Z,29.90
2022-09-28T04:23:54.209Z,30.20
2022-09-28T04:24:54.133Z,27.30
2022-09-28T04:25:54.082Z,30.50
2022-09-28T04:26:54.036Z,31.10
2022-09-28T04:27:53.991Z,31.50
2022-09-28T04:28:53.952Z,27.80
2022-09-28T04:29:53.903Z,27.90
2022-09-28T04:30:53.841Z,31.60
2022-09-28T04:31:53.871Z,27.50
2022-09-28T04:32:53.747Z,30.10
2022-09-28T04:33:53.703Z,28.70
2022-09-28T04:34:53.651Z,28.00
2022-09-28T04:35:53.609Z,30.40
2022-09-28T04:36:53.553Z,27.70
2022-09-28T04:37:53.504Z,29.50
2022-09-28T04:38:53.796Z,29.50
2022-09-28T04:39:53.423Z,31.80
2022-09-28T04:40:53.406Z,28.50
2022-09-28T04:41:53.308Z,29.10
2022-09-28T04:42:53.260Z,29.10
2022-09-28T04:43:53.211Z,28.50
2022-09-28T04:44:53.166Z,29.40
2022-09-28T04:45:53.155Z,27.00
2022-09-28T04:46:53.069Z,29.20
2022-09-28T04:47:53.019Z,29.40
2022-09-28T04:48:52.971Z,29.40
2022-09-28T04:49:52.921Z,34.00
2022-09-28T04:50:52.874Z,29.20
2022-09-28T04:51:52.826Z,31.20
2022-09-28T04:52:52.777Z,25.90
2022-09-28T04:53:52.731Z,28.50
2022-09-28T04:54:52.684Z,32.60
2022-09-28T04:55:52.652Z,30.10
2022-09-28T04:56:52.585Z,28.30
2022-09-28T04:57:52.542Z,28.60
2022-09-28T04:58:53.004Z,30.30
2022-09-28T04:59:52.438Z,30.30
2022-09-28T05:00:52.404Z,31.00
2022-09-28T05:01:52.394Z,29.10
2022-09-28T05:02:52.294Z,26.40
2022-09-28T05:03:52.246Z,31.30
2022-09-28T05:04:52.196Z,29.30
2022-09-28T05:05:52.155Z,31.10
2022-09-28T05:06:52.107Z,30.70
2022-09-28T05:07:52.052Z,31.70
2022-09-28T05:08:52.003Z,31.30
2022-09-28T05:09:51.961Z,32.50
2022-09-28T05:10:51.908Z,30.00
2022-09-28T05:11:51.886Z,30.50
2022-09-28T05:12:51.811Z,33.30
2022-09-28T05:13:51.760Z,30.70
2022-09-28T05:14:51.717Z,29.90
2022-09-28T05:15:54.989Z,34.00
2022-09-28T05:16:51.659Z,33.20
2022-09-28T05:17:51.568Z,29.80
2022-09-28T05:18:51.523Z,34.10
2022-09-28T05:19:51.471Z,32.50
2022-09-28T05:20:51.424Z,30.90
2022-09-28T05:21:51.374Z,33.40
2022-09-28T05:22:51.328Z,34.50
2022-09-28T05:23:51.277Z,34.00
2022-09-28T05:25:51.183Z,35.70
2022-09-28T05:26:51.138Z,31.60
2022-09-28T05:27:51.105Z,31.80
2022-09-28T05:28:51.035Z,33.50
2022-09-28T05:29:50.989Z,38.80
2022-09-28T05:30:50.959Z,34.10
2022-09-28T05:31:50.916Z,33.80
2022-09-28T05:32:50.845Z,31.60
2022-09-28T05:33:50.800Z,35.40
2022-09-28T05:34:50.748Z,36.10
2022-09-28T05:35:54.416Z,35.30
2022-09-28T05:36:50.650Z,35.00
2022-09-28T05:37:50.605Z,34.60
2022-09-28T05:38:50.555Z,35.30
2022-09-28T05:39:50.509Z,35.50
2022-09-28T05:40:50.530Z,36.10
2022-09-28T05:41:50.412Z,35.10
2022-09-28T05:42:50.360Z,33.70
2022-09-28T05:43:50.329Z,34.50
2022-09-28T05:44:50.264Z,35.10
2022-09-28T05:45:55.123Z,35.80
2022-09-28T05:46:50.166Z,36.70
2022-09-28T05:47:50.123Z,32.50
2022-09-28T05:48:50.093Z,32.70
2022-09-28T05:49:50.025Z,35.30
2022-09-28T05:50:49.972Z,36.50
2022-09-28T05:51:49.928Z,35.20
2022-09-28T05:52:49.876Z,33.60
2022-09-28T05:53:49.829Z,33.30
2022-09-28T05:54:49.781Z,36.20
2022-09-28T05:55:49.737Z,33.00
2022-09-28T05:56:49.683Z,33.70
2022-09-28T05:57:49.643Z,30.80
2022-09-28T05:58:49.588Z,33.50
2022-09-28T05:59:49.558Z,31.20
2022-09-28T06:00:49.518Z,32.80
2022-09-28T06:01:49.449Z,33.80
2022-09-28T06:02:49.413Z,32.40
2022-09-28T06:03:49.351Z,32.80
2022-09-28T06:04:49.298Z,34.10
2022-09-28T06:05:49.251Z,34.20
2022-09-28T06:06:49.203Z,34.50
2022-09-28T06:07:49.155Z,27.50
2022-09-28T06:08:49.105Z,32.30
2022-09-28T06:09:49.060Z,30.80
2022-09-28T06:10:49.009Z,35.00
2022-09-28T06:11:48.963Z,34.80
2022-09-28T06:12:48.912Z,33.10
2022-09-28T06:13:48.872Z,33.80
2022-09-28T06:14:48.815Z,30.00
2022-09-28T06:15:48.789Z,30.90
2022-09-28T06:16:48.743Z,30.70
2022-09-28T06:17:48.672Z,31.20
2022-09-28T06:18:48.623Z,32.90
2022-09-28T06:19:48.576Z,30.60
2022-09-28T06:20:48.529Z,31.20
2022-09-28T06:21:48.481Z,28.40
2022-09-28T06:22:48.430Z,29.20
2022-09-28T06:23:49.526Z,30.70
2022-09-28T06:24:48.334Z,28.80
2022-09-28T06:25:48.286Z,30.60
2022-09-28T06:26:48.236Z,31.20
2022-09-28T06:27:48.190Z,30.80
2022-09-28T06:28:48.145Z,28.90
2022-09-28T06:29:48.094Z,29.40
2022-09-28T06:30:48.178Z,31.80
2022-09-28T06:31:48.019Z,32.90
2022-09-28T06:32:47.947Z,28.00
2022-09-28T06:33:47.904Z,29.40
2022-09-28T06:34:49.211Z,29.60
2022-09-28T06:35:47.812Z,35.00
2022-09-28T06:36:47.754Z,31.40
2022-09-28T06:37:47.712Z,29.10
2022-09-28T06:38:47.658Z,32.90
2022-09-28T06:39:47.614Z,33.00
2022-09-28T06:40:47.656Z,31.10
2022-09-28T06:41:47.516Z,29.30
2022-09-28T06:42:47.467Z,32.50
2022-09-28T06:43:47.418Z,32.20
2022-09-28T06:44:47.369Z,30.30
2022-09-28T06:45:47.351Z,33.00
2022-09-28T06:46:47.273Z,33.10
2022-09-28T06:47:47.247Z,29.80
2022-09-28T06:48:47.177Z,31.50
2022-09-28T06:49:47.129Z,29.90
2022-09-28T06:50:47.081Z,31.50
2022-09-28T06:51:47.041Z,29.20
2022-09-28T06:52:46.984Z,30.90
2022-09-28T06:53:46.937Z,30.60
2022-09-28T06:54:46.888Z,29.70
2022-09-28T06:55:46.841Z,29.40
2022-09-28T06:56:46.791Z,27.40
2022-09-28T06:57:46.746Z,30.00
2022-09-28T06:58:46.696Z,28.50
2022-09-28T06:59:46.648Z,30.20
2022-09-28T07:00:46.667Z,25.50
2022-09-28T07:01:46.688Z,25.50
2022-09-28T07:02:46.549Z,27.00
2022-09-28T07:03:46.475Z,25.00
2022-09-28T07:04:46.406Z,27.10
2022-09-28T07:05:46.375Z,26.80
2022-09-28T07:06:46.309Z,25.70
2022-09-28T07:07:46.264Z,25.70
2022-09-28T07:08:55.837Z,26.30
2022-09-28T07:09:50.295Z,24.90
2022-09-28T07:10:46.120Z,26.20
2022-09-28T07:11:46.083Z,25.30
2022-09-28T07:12:46.037Z,28.70
2022-09-28T07:13:50.699Z,27.80
2022-09-28T07:14:48.090Z,26.60
2022-09-28T07:15:45.881Z,25.90
2022-09-28T07:17:07.818Z,25.90
2022-09-28T07:17:59.123Z,25.30
2022-09-28T07:18:45.737Z,28.80
2022-09-28T07:19:45.713Z,25.10
2022-09-28T07:20:53.328Z,24.60
2022-09-28T07:21:50.755Z,26.40
2022-09-28T07:22:45.671Z,25.20
2022-09-28T07:23:53.501Z,28.40
2022-09-28T07:24:45.447Z,27.20
2022-09-28T07:25:45.445Z,27.50
2022-09-28T07:26:45.353Z,25.00
2022-09-28T07:27:45.300Z,25.40
2022-09-28T07:28:45.252Z,26.60
2022-09-28T07:29:45.204Z,27.30
2022-09-28T07:30:45.275Z,29.40
2022-09-28T07:31:45.110Z,25.80
2022-09-28T07:32:45.061Z,27.60
2022-09-28T07:33:45.011Z,24.50
2022-09-28T07:34:44.964Z,25.10
2022-09-28T07:35:44.941Z,24.70
2022-09-28T07:36:44.869Z,26.40
2022-09-28T07:37:44.818Z,25.60
2022-09-28T07:38:44.772Z,29.40
2022-09-28T07:39:44.726Z,26.70
2022-09-28T07:40:48.315Z,26.20
2022-09-28T07:41:44.624Z,25.00
2022-09-28T07:42:44.580Z,26.10
2022-09-28T07:43:44.532Z,27.90
2022-09-28T07:44:44.484Z,24.70
2022-09-28T07:45:44.456Z,30.30
2022-09-28T07:46:44.386Z,25.10
2022-09-28T07:47:44.338Z,23.30
2022-09-28T07:48:44.291Z,25.70
2022-09-28T07:49:44.241Z,22.70
2022-09-28T07:50:44.196Z,21.30
2022-09-28T07:51:44.163Z,21.50
2022-09-28T07:52:44.099Z,20.30
2022-09-28T07:53:44.048Z,21.00
2022-09-28T07:54:44.004Z,21.70
2022-09-28T07:55:43.953Z,20.20
2022-09-28T07:56:43.907Z,20.60
2022-09-28T07:57:43.857Z,23.40
2022-09-28T07:58:43.814Z,22.60
2022-09-28T07:59:43.764Z,19.30
2022-09-28T08:00:43.714Z,21.40
2022-09-28T08:01:43.783Z,18.20
2022-09-28T08:02:43.704Z,19.70
2022-09-28T08:03:43.582Z,24.30
2022-09-28T08:04:43.523Z,21.50
2022-09-28T08:05:43.472Z,20.20
2022-09-28T08:06:43.426Z,21.90
2022-09-28T08:07:43.401Z,21.50
2022-09-28T08:08:43.330Z,19.90
2022-09-28T08:09:43.279Z,21.10
2022-09-28T08:10:46.550Z,20.80
2022-09-28T08:11:43.184Z,20.00
2022-09-28T08:12:43.144Z,23.40
2022-09-28T08:13:43.090Z,19.80
2022-09-28T08:14:43.043Z,21.60
2022-09-28T08:15:42.994Z,20.40
2022-09-28T08:16:42.948Z,20.30
2022-09-28T08:17:42.897Z,20.20
2022-09-28T08:18:42.850Z,22.20
2022-09-28T08:19:42.805Z,22.30
2022-09-28T08:20:42.753Z,20.90
2022-09-28T08:21:42.704Z,22.60
2022-09-28T08:22:42.664Z,22.80
2022-09-28T08:23:42.624Z,21.50
2022-09-28T08:24:42.561Z,21.50
2022-09-28T08:25:42.511Z,22.70
2022-09-28T08:26:42.466Z,20.80
2022-09-28T08:27:42.419Z,21.90
2022-09-28T08:28:42.369Z,23.90
2022-09-28T08:29:42.323Z,23.30
2022-09-28T08:30:42.309Z,21.40
2022-09-28T08:31:42.227Z,22.20
2022-09-28T08:32:42.186Z,22.40
2022-09-28T08:33:42.180Z,23.30
2022-09-28T08:34:42.081Z,24.00
2022-09-28T08:35:42.221Z,22.80
2022-09-28T08:36:41.984Z,23.20
2022-09-28T08:37:44.545Z,22.00
2022-09-28T08:38:41.888Z,23.90
2022-09-28T08:39:41.859Z,22.60
2022-09-28T08:40:41.879Z,22.80
2022-09-28T08:41:41.743Z,22.20
2022-09-28T08:42:41.711Z,23.10
2022-09-28T08:43:41.658Z,21.90
2022-09-28T08:44:41.600Z,23.80
2022-09-28T08:45:41.580Z,19.90
2022-09-28T08:46:41.510Z,20.10
2022-09-28T08:47:41.456Z,19.20
2022-09-28T08:48:41.412Z,18.40
2022-09-28T08:49:41.461Z,17.90
2022-09-28T08:50:41.319Z,17.50
2022-09-28T08:51:41.265Z,18.20
2022-09-28T08:52:41.517Z,17.70
2022-09-28T08:53:41.171Z,17.70
2022-09-28T08:54:41.122Z,21.00
2022-09-28T08:55:41.093Z,17.30
2022-09-28T08:56:41.026Z,19.60
2022-09-28T08:57:40.977Z,18.00
2022-09-28T08:58:40.934Z,18.60
2022-09-28T08:59:40.882Z,21.20
2022-09-28T09:00:40.837Z,20.30
2022-09-28T09:01:40.860Z,17.80
2022-09-28T09:02:40.777Z,17.40
2022-09-28T09:03:40.693Z,19.10
2022-09-28T09:04:40.648Z,18.40
2022-09-28T09:05:40.595Z,16.70
2022-09-28T09:06:40.553Z,17.10
2022-09-28T09:07:40.501Z,15.50
2022-09-28T09:08:40.463Z,16.80
2022-09-28T09:09:40.404Z,16.10
2022-09-28T09:10:40.363Z,15.10
2022-09-28T09:11:40.327Z,14.60
2022-09-28T09:12:40.339Z,14.70
2022-09-28T09:13:40.220Z,15.30
2022-09-28T09:14:40.197Z,16.50
2022-09-28T09:15:40.121Z,15.20
2022-09-28T09:16:40.097Z,15.90
2022-09-28T09:17:40.028Z,15.70
2022-09-28T09:18:39.979Z,15.90
2022-09-28T09:19:39.932Z,14.40
2022-09-28T09:20:39.886Z,14.60
2022-09-28T09:21:39.833Z,15.60
2022-09-28T09:22:39.787Z,15.40
2022-09-28T09:23:39.744Z,13.70
2022-09-28T09:24:39.693Z,14.80
2022-09-28T09:25:39.642Z,14.70
2022-09-28T09:26:39.604Z,15.40
2022-09-28T09:27:39.593Z,14.90
2022-09-28T09:28:39.508Z,14.80
2022-09-28T09:29:39.461Z,13.90
2022-09-28T09:30:39.444Z,13.60
2022-09-28T09:31:39.361Z,13.80
2022-09-28T09:32:39.312Z,13.90
2022-09-28T09:33:39.265Z,14.50
2022-09-28T09:34:39.218Z,13.70
2022-09-28T09:35:39.169Z,13.70
2022-09-28T09:36:39.120Z,13.20
2022-09-28T09:37:39.073Z,13.40
2022-09-28T09:38:39.028Z,13.00
2022-09-28T09:39:38.980Z,13.80
2022-09-28T09:40:38.979Z,13.80
2022-09-28T09:41:38.883Z,13.80
2022-09-28T09:42:38.836Z,13.40
2022-09-28T09:43:38.812Z,13.80
2022-09-28T09:44:38.743Z,14.60
2022-09-28T09:45:38.733Z,12.60
2022-09-28T09:46:38.647Z,11.40
2022-09-28T09:47:38.599Z,11.50
2022-09-28T09:48:38.554Z,12.10
2022-09-28T09:49:38.504Z,11.60
2022-09-28T09:50:38.469Z,11.30
2022-09-28T09:51:38.416Z,11.00
2022-09-28T09:52:41.055Z,10.60
2022-09-28T09:53:38.722Z,11.20
2022-09-28T09:54:38.272Z,10.70
2022-09-28T09:55:38.221Z,12.10
2022-09-28T09:56:38.173Z,10.40
2022-09-28T09:57:38.124Z,12.10
2022-09-28T09:58:38.079Z,10.60
2022-09-28T09:59:38.046Z,12.20
2022-09-28T10:00:37.984Z,9.90
2022-09-28T10:01:37.991Z,10.10
2022-09-28T10:02:37.915Z,10.20
2022-09-28T10:03:37.846Z,10.50
2022-09-28T10:04:37.793Z,9.80
2022-09-28T10:05:37.750Z,9.90
2022-09-28T10:06:37.710Z,9.90
2022-09-28T10:07:41.398Z,9.90
2022-09-28T10:08:37.617Z,8.90
2022-09-28T10:09:37.557Z,10.30
2022-09-28T10:10:37.512Z,9.50
2022-09-28T10:11:37.463Z,11.40
2022-09-28T10:12:37.418Z,9.60
2022-09-28T10:13:37.371Z,9.20
2022-09-28T10:14:37.324Z,9.10
2022-09-28T10:15:37.296Z,9.30
2022-09-28T10:16:37.325Z,8.60
2022-09-28T10:17:37.180Z,8.50
2022-09-28T10:18:37.137Z,8.30
2022-09-28T10:19:37.088Z,8.40
2022-09-28T10:20:37.039Z,8.20
2022-09-28T10:21:37.001Z,8.30
2022-09-28T10:22:36.947Z,8.10
2022-09-28T10:23:36.898Z,8.50
2022-09-28T10:24:36.854Z,7.70
2022-09-28T10:25:36.809Z,8.50
2022-09-28T10:26:36.762Z,9.00
2022-09-28T10:27:36.719Z,11.60
2022-09-28T10:28:36.664Z,9.40
2022-09-28T10:29:36.617Z,8.20
2022-09-28T10:30:36.653Z,9.30
2022-09-28T10:31:36.539Z,9.30
2022-09-28T10:32:36.473Z,9.10
2022-09-28T10:33:36.426Z,9.00
2022-09-28T10:34:36.382Z,8.90
2022-09-28T10:35:36.334Z,8.20
2022-09-28T10:36:36.293Z,8.50
2022-09-28T10:37:36.237Z,8.60
2022-09-28T10:38:36.196Z,8.80
2022-09-28T10:39:36.144Z,9.50
2022-09-28T10:40:36.121Z,9.40
2022-09-28T10:41:36.050Z,8.30
2022-09-28T10:42:36.004Z,9.00
2022-09-28T10:43:35.956Z,8.60
2022-09-28T10:44:35.912Z,8.70
2022-09-28T10:45:36.037Z,9.60
2022-09-28T10:46:35.815Z,9.60
2022-09-28T10:47:35.790Z,8.70
2022-09-28T10:48:35.725Z,9.20
2022-09-28T10:49:35.675Z,8.80
2022-09-28T10:50:35.628Z,8.90
2022-09-28T10:51:35.581Z,10.80
2022-09-28T10:52:35.536Z,9.60
2022-09-28T10:53:35.490Z,9.90
2022-09-28T10:54:35.439Z,9.80
2022-09-28T10:55:35.391Z,10.00
2022-09-28T10:56:35.347Z,9.10
2022-09-28T10:57:35.296Z,9.60
2022-09-28T10:58:35.253Z,7.50
2022-09-28T10:59:35.203Z,7.80
2022-09-28T11:00:35.170Z,9.70
2022-09-28T11:01:35.207Z,7.10
2022-09-28T11:02:36.388Z,7.40
2022-09-28T11:03:35.035Z,6.90
2022-09-28T11:04:34.970Z,7.00
2022-09-28T11:05:34.923Z,7.50
2022-09-28T11:06:34.877Z,7.30
2022-09-28T11:07:34.828Z,9.00
2022-09-28T11:08:34.783Z,7.70
2022-09-28T11:09:34.739Z,7.00
2022-09-28T11:10:34.691Z,7.10
2022-09-28T11:11:34.644Z,8.60
2022-09-28T11:12:34.596Z,9.30
2022-09-28T11:13:34.554Z,8.40
2022-09-28T11:14:37.238Z,7.40
2022-09-28T11:15:34.459Z,8.20
2022-09-28T11:16:34.491Z,7.50
2022-09-28T11:17:34.368Z,7.70
2022-09-28T11:18:34.321Z,9.30
2022-09-28T11:19:34.285Z,8.10
2022-09-28T11:20:34.222Z,9.00
2022-09-28T11:21:34.177Z,7.40
2022-09-28T11:22:34.133Z,8.00
2022-09-28T11:23:34.082Z,7.70
2022-09-28T11:24:34.036Z,8.20
2022-09-28T11:25:33.995Z,7.70
2022-09-28T11:26:33.945Z,6.60
2022-09-28T11:27:33.897Z,6.80
2022-09-28T11:28:33.848Z,9.10
2022-09-28T11:29:33.802Z,6.90
2022-09-28T11:30:33.890Z,6.70
2022-09-28T11:31:33.712Z,6.20
2022-09-28T11:32:33.667Z,6.00
2022-09-28T11:33:33.614Z,5.50
2022-09-28T11:34:57.457Z,5.70
2022-09-28T11:35:33.541Z,5.80
2022-09-28T11:36:33.473Z,5.70
2022-09-28T11:37:33.432Z,5.20
2022-09-28T11:38:33.382Z,5.80
2022-09-28T11:39:33.337Z,5.50
2022-09-28T11:40:33.368Z,5.70
2022-09-28T11:41:33.242Z,5.80
2022-09-28T11:42:33.196Z,6.20
2022-09-28T11:43:33.153Z,6.30
2022-09-28T11:44:33.654Z,6.30
2022-09-28T11:45:33.057Z,5.70
2022-09-28T11:46:33.078Z,5.90
2022-09-28T11:47:32.964Z,6.30
2022-09-28T11:48:32.912Z,6.60
2022-09-28T11:49:32.870Z,8.10
2022-09-28T11:50:32.820Z,7.60
2022-09-28T11:51:32.795Z,6.60
2022-09-28T11:52:32.725Z,7.30
2022-09-28T11:53:32.683Z,6.80
2022-09-28T11:54:32.633Z,7.00
2022-09-28T11:55:32.589Z,7.20
2022-09-28T11:57:15.941Z,6.90
2022-09-28T11:58:15.904Z,6.70
2022-09-28T11:59:15.844Z,7.50
2022-09-28T12:00:15.868Z,6.50
2022-09-28T12:02:15.803Z,6.10
2022-09-28T12:03:15.810Z,6.80
2022-09-28T12:04:15.699Z,6.50
2022-09-28T12:05:20.499Z,6.50
2022-09-28T12:06:15.515Z,6.50
2022-09-28T12:07:15.526Z,6.90
2022-09-28T12:08:15.423Z,6.30
2022-09-28T12:09:15.433Z,8.60
2022-09-28T12:10:15.371Z,6.10
2022-09-28T12:11:15.287Z,6.50
2022-09-28T12:12:15.236Z,5.30
2022-09-28T12:13:15.192Z,5.50
2022-09-28T12:14:15.145Z,5.70
2022-09-28T12:15:15.104Z,6.60
2022-09-28T12:16:38.843Z,7.00
2022-09-28T12:17:19.332Z,5.80
2022-09-28T12:18:14.992Z,5.40
2022-09-28T12:19:14.918Z,5.60
2022-09-28T12:20:14.971Z,5.80
2022-09-28T12:21:14.820Z,4.90
2022-09-28T12:22:14.774Z,4.20
2022-09-28T12:23:14.754Z,5.00
2022-09-28T12:24:14.678Z,5.20
2022-09-28T12:25:14.635Z,4.40
2022-09-28T12:26:14.586Z,5.60
2022-09-28T12:27:14.540Z,4.60
2022-09-28T12:28:14.492Z,5.20
2022-09-28T12:29:14.539Z,4.60
2022-09-28T12:30:14.407Z,5.70
2022-09-28T12:31:14.422Z,5.30
2022-09-28T12:32:14.314Z,5.20
2022-09-28T12:33:14.263Z,5.10
2022-09-28T12:34:14.215Z,6.40
2022-09-28T12:35:14.171Z,5.50
2022-09-28T12:36:14.124Z,5.50
2022-09-28T12:37:14.081Z,5.60
2022-09-28T12:38:14.032Z,5.70
2022-09-28T12:39:21.678Z,5.50
2022-09-28T12:40:13.935Z,5.10
2022-09-28T12:41:13.891Z,4.40
2022-09-28T12:42:13.852Z,4.50
2022-09-28T12:43:13.807Z,4.30
2022-09-28T12:44:13.750Z,4.30
2022-09-28T12:45:13.707Z,5.90
2022-09-28T12:46:13.861Z,4.10
2022-09-28T12:47:13.689Z,4.30
2022-09-28T12:48:13.566Z,4.50
2022-09-28T12:50:07.290Z,4.50
2022-09-28T12:50:38.005Z,4.70
2022-09-28T12:51:13.430Z,4.80
2022-09-28T12:52:13.378Z,4.60
2022-09-28T12:53:13.335Z,4.70
2022-09-28T12:54:13.286Z,5.10
2022-09-28T12:55:13.273Z,4.90
2022-09-28T12:56:14.688Z,5.00
2022-09-28T12:57:13.153Z,4.50
2022-09-28T12:58:13.104Z,4.80
2022-09-28T12:59:13.054Z,4.90
2022-09-28T13:00:13.008Z,4.10
2022-09-28T13:01:13.032Z,5.50
2022-09-28T13:02:12.998Z,4.50